6. April 2020
  • Aktuelles

    Stand: 03.04.20 – 10.00 Uhr LT

    Betriebsstatus des Flugplatzes: PPR
    Diese Regelung gilt ab 18.03.2020 b.a.w.!

    PPR ist telefonisch anzufordern: +49 9292 977-261

    Zusätzliche Informationen, NOTAMs, Hinweise, Verfahren und Allgemeinverfügungen finden sie hier: [ Mehr… ]

Coffee-To-Fly

Serviceangebote

Airport Coffee-Lounge

Nutzen Sie unsere gemütliche Lounge zum Ausruhen und Entspannen vor Ihrem nächsten Flug. Wir bieten Ihnen dazu Kaffee, Tee und Soft-Drinks sowie Sweets im Self-Service für kleines Geld. In unserer Flugvorbereitungs-Corner können Sie sich informieren. Natürlich bieten wir Ihnen freies WLAN. [ Mehr… ]

Unsere Flugkraftstoffe

Verhalten am Flugplatz!

Unsere Onlineservices

Unsere Onlineservices

AirShampoo 2020 – Wir sind dabei!

Flugplatzwetter

METAR:

EDQM 061320Z 21005KT CAVOK 18/M00 Q1023

Doppelnutzung

In Abstimmung mit dem Freistaat Bayern wird der Verkehrslandeplatz Hof-Plauen bis auf weiteres einer Doppelnutzung ab 01.09.2015 zugeführt.

Aufgrund der Parallelnutzung zum Test von Fahrerassistenzsystemen aus dem Bereich der Automobilentwicklung ergibt sich folgende Einschränkungen:

Taxiway „B“ zeitweise nicht nutzbar und Vorfeldbereich eingeschränkt berollbar!